Station Historical Data
Daily Summary for September 30, 2017 Units:  Metric    English   Both
« Previous Day
Next Day »
Daily Weekly Monthly Yearly Custom
  High: Low: Average:
Temperature: 15.4 °C 5.8 °C 10.4 °C
Dew Point: 8.9 °C 3.6 °C 6.3 °C
Humidity: 91% 52% 77%
Wind Speed: 16.1km/h 0km/h 2.9km/h
Wind Gust: 25.7km/h - -
Wind- - West
Pressure: 1030 hPa 1018.5 hPa -
Precipitation: 0 mm    
Historical Graphs
 
 
Tabular Data for September 30, 2017
Time Temperature Dew Point Pressure Wind Wind Speed Wind Gust Humidity Rainfall Rate (Hourly)
00:04 10.7 °C 8.9 °C 1018.5 hPa NNE 16.1 km/h 19.3 km/h 89% 0.51 mm
00:09 10.6 °C 8.8 °C 1018.5 hPa NW 11.3 km/h 16.1 km/h 89% 0.51 mm
00:14 10.6 °C 8.8 °C 1018.8 hPa NNW 8 km/h 19.3 km/h 89% 0.25 mm
00:19 10.4 °C 8.7 °C 1018.8 hPa NNW 6.4 km/h 19.3 km/h 89% 0.25 mm
00:24 10.4 °C 8.7 °C 1019.2 hPa North 8 km/h 25.7 km/h 89% 0.25 mm
00:29 10.3 °C 8.6 °C 1019.2 hPa North 4.8 km/h 16.1 km/h 89% 0.25 mm
00:34 10.2 °C 8.5 °C 1019.5 hPa North 4.8 km/h 16.1 km/h 89% 0.25 mm
00:39 10.2 °C 8.4 °C 1019.5 hPa NNW 6.4 km/h 17.7 km/h 89% 0.51 mm
00:44 10.1 °C 8.3 °C 1019.5 hPa NNW 6.4 km/h 17.7 km/h 89% 0.51 mm
00:49 9.9 °C 8.2 °C 1019.9 hPa North 8 km/h 20.9 km/h 89% 0.51 mm
00:54 9.9 °C 8.2 °C 1019.9 hPa NNW 8 km/h 20.9 km/h 89% 0.51 mm
00:59 9.9 °C 8.2 °C 1019.9 hPa NNW 4.8 km/h 20.9 km/h 89% 0.51 mm
01:04 9.8 °C 8.1 °C 1019.9 hPa NNE 6.4 km/h 14.5 km/h 89% 0.51 mm
01:09 9.8 °C 8.1 °C 1020.2 hPa NNW 3.2 km/h 19.3 km/h 89% 0.51 mm
01:14 9.8 °C 8.2 °C 1020.2 hPa North 6.4 km/h 14.5 km/h 90% 0.51 mm
01:19 9.8 °C 8.3 °C 1020.5 hPa WNW 6.4 km/h 12.9 km/h 90% 0.76 mm
01:24 9.8 °C 8.3 °C 1020.5 hPa Calm   12.9 km/h 90% 0.76 mm
01:29 9.8 °C 8.2 °C 1020.5 hPa NNW 12.9 km/h 19.3 km/h 90% 0.76 mm
01:34 9.7 °C 8.1 °C 1020.5 hPa NNW 6.4 km/h 25.7 km/h 90% 0.76 mm
01:39 9.7 °C 8.1 °C 1020.9 hPa North 6.4 km/h 25.7 km/h 90% 0.76 mm
01:44 9.6 °C 8.1 °C 1020.9 hPa North 6.4 km/h 17.7 km/h 90% 0.76 mm
01:49 9.6 °C 8 °C 1020.9 hPa North 6.4 km/h 17.7 km/h 90% 0.76 mm
01:54 9.5 °C 7.9 °C 1021.2 hPa NNW 6.4 km/h 19.3 km/h 90% 0.76 mm
01:59 9.4 °C 7.9 °C 1021.2 hPa NW 4.8 km/h 12.9 km/h 90% 0.76 mm
02:04 9.4 °C 7.8 °C 1021.2 hPa North 4.8 km/h 16.1 km/h 90% 0.51 mm
02:09 9.4 °C 7.8 °C 1021.6 hPa North 6.4 km/h 22.5 km/h 90% 0.76 mm
02:14 9.3 °C 7.8 °C 1021.6 hPa NNW 6.4 km/h 22.5 km/h 90% 0.76 mm
02:19 9.3 °C 7.9 °C 1021.6 hPa NNW 6.4 km/h 12.9 km/h 91% 0.51 mm
02:24 9.3 °C 7.8 °C 1021.6 hPa NNW 6.4 km/h 11.3 km/h 90% 0.51 mm
02:29 9.3 °C 7.8 °C 1021.9 hPa Calm   6.4 km/h 90% 0.76 mm
02:34 9.3 °C 7.8 °C 1021.9 hPa North 1.6 km/h 12.9 km/h 90% 0.76 mm
02:39 9.3 °C 7.8 °C 1021.9 hPa NNW 4.8 km/h 12.9 km/h 90% 0.51 mm
02:44 9.3 °C 7.9 °C 1021.9 hPa NNW 4.8 km/h 12.9 km/h 91% 0.51 mm
02:49 9.2 °C 7.8 °C 1022.2 hPa North 3.2 km/h 14.5 km/h 91% 0.51 mm
02:54 9.2 °C 7.8 °C 1022.2 hPa NW 1.6 km/h 11.3 km/h 91% 0.51 mm
02:59 9.2 °C 7.8 °C 1022.2 hPa NNW 3.2 km/h 12.9 km/h 91% 0.51 mm
03:04 9.2 °C 7.8 °C 1022.2 hPa Calm   8 km/h 91% 0.76 mm
03:09 9.1 °C 7.7 °C 1022.2 hPa NNW 3.2 km/h 9.7 km/h 91% 0.51 mm
03:14 9.2 °C 7.8 °C 1022.2 hPa NNW 3.2 km/h 9.7 km/h 91% 0.51 mm
03:19 9.2 °C 7.8 °C 1022.6 hPa NNW 3.2 km/h 16.1 km/h 91% 0.51 mm
03:24 9.1 °C 7.7 °C 1022.6 hPa NNW 6.4 km/h 6.4 km/h 91% 0.51 mm
03:29 9.1 °C 7.7 °C 1022.6 hPa NNW 1.6 km/h 6.4 km/h 91% 0.25 mm
03:34 9.1 °C 7.7 °C 1022.6 hPa NW 4.8 km/h 9.7 km/h 91% 0.25 mm
03:39 9.1 °C 7.7 °C 1022.6 hPa NNW 3.2 km/h 12.9 km/h 91% 0.25 mm
03:44 9.1 °C 7.5 °C 1022.6 hPa NNW 3.2 km/h 12.9 km/h 90% 0.25 mm
03:49 9.1 °C 7.5 °C 1022.6 hPa Calm   11.3 km/h 90% 0.25 mm
03:54 9.1 °C 7.6 °C 1022.9 hPa Calm   4.8 km/h 90% 0.25 mm
03:59 9.2 °C 7.6 °C 1022.9 hPa NNW 3.2 km/h 6.4 km/h 90% 0.25 mm
04:04 9.1 °C 7.6 °C 1022.9 hPa NNW 1.6 km/h 9.7 km/h 90% 0 mm
04:09 9.1 °C 7.5 °C 1022.9 hPa NNW 1.6 km/h 9.7 km/h 90% 0 mm
04:14 9.1 °C 7.5 °C 1022.9 hPa North 3.2 km/h 8 km/h 90% 0 mm
04:19 9.1 °C 7.6 °C 1022.9 hPa NNW 3.2 km/h 8 km/h 90% 0 mm
04:24 9.1 °C 7.4 °C 1023.2 hPa NNW 1.6 km/h 8 km/h 89% 0 mm
04:29 9.1 °C 7.3 °C 1023.2 hPa NNW 1.6 km/h 8 km/h 89% 0 mm
04:34 9.1 °C 7.3 °C 1023.6 hPa NNW 1.6 km/h 4.8 km/h 89% 0 mm
04:39 9.1 °C 7.3 °C 1023.6 hPa Calm   11.3 km/h 89% 0 mm
04:44 9.1 °C 7.3 °C 1023.6 hPa NNW 3.2 km/h 8 km/h 89% 0 mm
04:49 9.1 °C 7.4 °C 1023.6 hPa Calm   9.7 km/h 89% 0 mm
04:54 9.1 °C 7.3 °C 1023.6 hPa Calm   8 km/h 89% 0 mm
05:04 9.2 °C 7.4 °C 1023.9 hPa NNW 3.2 km/h 12.9 km/h 89% 0 mm
05:09 9.2 °C 7.4 °C 1023.9 hPa NNW 1.6 km/h 8 km/h 89% 0 mm
05:14 9.2 °C 7.3 °C 1023.9 hPa NW 1.6 km/h 8 km/h 88% 0 mm
05:19 9.2 °C 7.3 °C 1023.9 hPa NNW 1.6 km/h 12.9 km/h 88% 0 mm
05:24 9.2 °C 7.3 °C 1023.9 hPa Calm   6.4 km/h 88% 0 mm
05:29 9.3 °C 7.4 °C 1024.3 hPa NNW 1.6 km/h 11.3 km/h 88% 0 mm
05:34 9.3 °C 7.4 °C 1024.3 hPa NNW 1.6 km/h 11.3 km/h 88% 0 mm
05:39 9.3 °C 7.4 °C 1024.3 hPa Calm   8 km/h 88% 0 mm
05:44 9.3 °C 7.4 °C 1024.3 hPa Calm   8 km/h 88% 0 mm
05:49 9.3 °C 7.4 °C 1024.3 hPa Calm   8 km/h 88% 0 mm
05:54 9.2 °C 7.2 °C 1024.3 hPa NW 4.8 km/h 8 km/h 87% 0 mm
05:59 9.2 °C 7.2 °C 1024.3 hPa NNW 3.2 km/h 11.3 km/h 87% 0 mm
06:04 9.3 °C 7.2 °C 1024.6 hPa Calm   6.4 km/h 87% 0 mm
06:09 9.3 °C 7.2 °C 1024.6 hPa NNW 1.6 km/h 4.8 km/h 87% 0 mm
06:14 9.3 °C 7.2 °C 1024.6 hPa WNW 3.2 km/h 9.7 km/h 87% 0 mm
06:19 9.3 °C 7.3 °C 1024.6 hPa WNW 3.2 km/h 8 km/h 87% 0 mm
06:24 9.3 °C 7.2 °C 1024.9 hPa Calm   8 km/h 87% 0 mm
06:29 9.3 °C 7.2 °C 1024.9 hPa Calm   4.8 km/h 87% 0 mm
06:34 9.3 °C 7.2 °C 1024.9 hPa NNW 1.6 km/h 4.8 km/h 87% 0 mm
06:39 9.2 °C 7 °C 1025.3 hPa NNW 1.6 km/h 4.8 km/h 86% 0 mm
06:44 9.3 °C 7.1 °C 1025.3 hPa NW 1.6 km/h 4.8 km/h 86% 0 mm
06:49 9.3 °C 7.1 °C 1025.3 hPa Calm   3.2 km/h 86% 0 mm
06:54 9.2 °C 7 °C 1025.3 hPa Calm   3.2 km/h 86% 0 mm
06:59 9.3 °C 7.1 °C 1025.3 hPa WNW 3.2 km/h 4.8 km/h 86% 0 mm
07:04 9.3 °C 7.1 °C 1025.6 hPa NNW 3.2 km/h 9.7 km/h 86% 0 mm
07:09 9.3 °C 7.1 °C 1025.6 hPa Calm   6.4 km/h 86% 0 mm
07:14 9.3 °C 7.1 °C 1025.6 hPa NNW 3.2 km/h 6.4 km/h 86% 0 mm
07:19 9.3 °C 7.1 °C 1026 hPa NNW 3.2 km/h 11.3 km/h 86% 0 mm
07:24 9.3 °C 6.9 °C 1026 hPa North 9.7 km/h 14.5 km/h 85% 0 mm
07:29 9.3 °C 6.9 °C 1026 hPa NNW 3.2 km/h 14.5 km/h 85% 0 mm
07:34 9.4 °C 7 °C 1026.3 hPa NNW 3.2 km/h 12.9 km/h 85% 0 mm
07:39 9.4 °C 7 °C 1026.3 hPa NNW 3.2 km/h 9.7 km/h 85% 0 mm
07:44 9.3 °C 6.9 °C 1026.3 hPa NNW 8 km/h 11.3 km/h 85% 0 mm
07:49 9.3 °C 6.9 °C 1026.6 hPa North 3.2 km/h 9.7 km/h 85% 0 mm
07:54 9.3 °C 6.8 °C 1026.6 hPa NNW 6.4 km/h 6.4 km/h 84% 0 mm
07:59 9.3 °C 6.8 °C 1026.6 hPa NNW 1.6 km/h 9.7 km/h 84% 0 mm
08:04 9.3 °C 6.8 °C 1026.6 hPa NNW 3.2 km/h 16.1 km/h 84% 0 mm
08:09 9.3 °C 6.7 °C 1026.6 hPa NNW 4.8 km/h 16.1 km/h 84% 0 mm
08:14 9.3 °C 6.7 °C 1027 hPa NW 3.2 km/h 8 km/h 84% 0 mm
08:19 9.2 °C 6.5 °C 1027 hPa NNW 3.2 km/h 9.7 km/h 83% 0 mm
08:24 9.3 °C 6.6 °C 1027 hPa NNW 1.6 km/h 16.1 km/h 83% 0 mm
08:29 9.3 °C 6.6 °C 1027 hPa NNW 3.2 km/h 16.1 km/h 83% 0 mm
08:34 9.3 °C 6.6 °C 1027 hPa NNW 3.2 km/h 8 km/h 83% 0 mm
08:39 9.3 °C 6.6 °C 1027.3 hPa Calm   4.8 km/h 83% 0 mm
08:44 9.3 °C 6.6 °C 1027.3 hPa West 1.6 km/h 6.4 km/h 83% 0 mm
08:49 9.3 °C 6.6 °C 1027.3 hPa North 3.2 km/h 9.7 km/h 83% 0 mm
08:54 9.3 °C 6.6 °C 1027.3 hPa Calm   9.7 km/h 83% 0 mm
08:59 9.3 °C 6.6 °C 1027.3 hPa NNW 3.2 km/h 9.7 km/h 83% 0 mm
09:04 9.4 °C 6.7 °C 1027.3 hPa NNW 1.6 km/h 8 km/h 83% 0 mm
09:09 9.4 °C 6.7 °C 1027.3 hPa NNW 1.6 km/h 14.5 km/h 83% 0 mm
09:14 9.3 °C 6.6 °C 1027.3 hPa NNW 1.6 km/h 14.5 km/h 83% 0 mm
09:19 9.5 °C 6.8 °C 1027.7 hPa NW 1.6 km/h 6.4 km/h 83% 0 mm
09:24 9.5 °C 6.8 °C 1027.7 hPa NNW 1.6 km/h 11.3 km/h 83% 0 mm
09:29 9.6 °C 6.9 °C 1027.7 hPa NNW 4.8 km/h 4.8 km/h 83% 0 mm
09:34 9.7 °C 6.9 °C 1027.7 hPa Calm   9.7 km/h 83% 0 mm
09:39 9.8 °C 7 °C 1027.7 hPa North 1.6 km/h 12.9 km/h 83% 0 mm
09:44 9.8 °C 6.9 °C 1027.7 hPa Calm   12.9 km/h 82% 0 mm
09:49 9.9 °C 7 °C 1028 hPa NNW 1.6 km/h 9.7 km/h 82% 0 mm
09:54 10 °C 7.1 °C 1028 hPa North 4.8 km/h 12.9 km/h 82% 0 mm
09:59 10.1 °C 6.9 °C 1028 hPa NNW 4.8 km/h 11.3 km/h 81% 0 mm
10:04 10.2 °C 7.1 °C 1028 hPa NNW 3.2 km/h 11.3 km/h 81% 0 mm
10:09 10.3 °C 7 °C 1028 hPa NNW 3.2 km/h 9.7 km/h 80% 0 mm
10:14 10.4 °C 7.3 °C 1028.3 hPa NNW 3.2 km/h 12.9 km/h 81% 0 mm
10:19 10.4 °C 7.2 °C 1028.3 hPa NNW 1.6 km/h 9.7 km/h 80% 0 mm
10:24 10.8 °C 7.4 °C 1028.3 hPa North 6.4 km/h 14.5 km/h 80% 0 mm
10:29 10.8 °C 7.3 °C 1028.3 hPa NNE 8 km/h 9.7 km/h 79% 0 mm
10:34 10.7 °C 7.2 °C 1028.3 hPa North 3.2 km/h 9.7 km/h 79% 0 mm
10:39 10.8 °C 7.1 °C 1028.7 hPa NNW 4.8 km/h 16.1 km/h 78% 0 mm
10:44 11.4 °C 7.7 °C 1028.7 hPa NNW 4.8 km/h 16.1 km/h 78% 0 mm
10:49 11.6 °C 7.4 °C 1028.7 hPa NNE 4.8 km/h 9.7 km/h 76% 0 mm
10:54 11.8 °C 7.5 °C 1028.7 hPa North 6.4 km/h 11.3 km/h 75% 0 mm
10:59 12.1 °C 7.6 °C 1028.7 hPa NNW 4.8 km/h 11.3 km/h 74% 0 mm
11:04 12.7 °C 7.8 °C 1028.7 hPa NNW 4.8 km/h 11.3 km/h 72% 0 mm
11:09 12.4 °C 7.3 °C 1028.7 hPa NW 3.2 km/h 6.4 km/h 71% 0 mm
11:14 12.5 °C 7.4 °C 1028.7 hPa WNW 1.6 km/h 11.3 km/h 71% 0 mm
11:19 12.2 °C 6.7 °C 1028.7 hPa Calm   6.4 km/h 69% 0 mm
11:24 11.9 °C 6.8 °C 1028.7 hPa North 9.7 km/h 11.3 km/h 71% 0 mm
11:29 11.4 °C 6.5 °C 1028.7 hPa NW 3.2 km/h 11.3 km/h 72% 0 mm
11:34 12.1 °C 7.6 °C 1028.7 hPa NW 3.2 km/h 11.3 km/h 74% 0 mm
11:39 12 °C 6.9 °C 1029 hPa NW 3.2 km/h 9.7 km/h 71% 0 mm
11:44 11.7 °C 6.4 °C 1029 hPa NNW 3.2 km/h 9.7 km/h 70% 0 mm
11:49 11.5 °C 6.4 °C 1029 hPa NNW 4.8 km/h 11.3 km/h 71% 0 mm
11:54 11.4 °C 6.5 °C 1029 hPa NNW 6.4 km/h 8 km/h 72% 0 mm
11:59 12.3 °C 7.6 °C 1029 hPa NNW 4.8 km/h 11.3 km/h 73% 0 mm
12:04 12.4 °C 7.3 °C 1029 hPa North 3.2 km/h 11.3 km/h 71% 0 mm
12:09 12.4 °C 6.7 °C 1029 hPa Calm   8 km/h 68% 0 mm
12:14 12.3 °C 6.8 °C 1029 hPa North 6.4 km/h 8 km/h 69% 0 mm
12:19 12.2 °C 6 °C 1029 hPa Calm   8 km/h 66% 0 mm
12:24 13.3 °C 7.5 °C 1029 hPa NE 3.2 km/h 8 km/h 68% 0 mm
12:29 13.3 °C 6.8 °C 1029 hPa NNE 3.2 km/h 8 km/h 65% 0 mm
12:34 12.8 °C 6.6 °C 1029 hPa NNE 3.2 km/h 12.9 km/h 66% 0 mm
12:39 12.4 °C 6.7 °C 1029 hPa North 3.2 km/h 12.9 km/h 68% 0 mm
12:44 12.1 °C 6.4 °C 1029.3 hPa NNW 4.8 km/h 14.5 km/h 68% 0 mm
12:49 12.3 °C 6.9 °C 1029.3 hPa NNW 4.8 km/h 8 km/h 70% 0 mm
12:54 12.4 °C 6.8 °C 1029.3 hPa NNW 4.8 km/h 8 km/h 69% 0 mm
12:59 12.3 °C 6.6 °C 1029.3 hPa North 4.8 km/h 11.3 km/h 68% 0 mm
13:04 12.7 °C 6.9 °C 1029.3 hPa North 4.8 km/h 11.3 km/h 68% 0 mm
13:09 12.9 °C 6.7 °C 1029.3 hPa North 4.8 km/h 11.3 km/h 66% 0 mm
13:14 12.9 °C 6.7 °C 1029.3 hPa NNE 3.2 km/h 9.7 km/h 66% 0 mm
13:19 12.8 °C 6.8 °C 1029.3 hPa NNW 4.8 km/h 9.7 km/h 67% 0 mm
13:24 12.7 °C 6.7 °C 1029 hPa ENE 6.4 km/h 6.4 km/h 67% 0 mm
13:29 12.9 °C 5.8 °C 1029 hPa NNE 3.2 km/h 11.3 km/h 62% 0 mm
13:34 13 °C 5.9 °C 1029 hPa NNE 4.8 km/h 11.3 km/h 62% 0 mm
13:39 13.8 °C 7.1 °C 1029 hPa East 8 km/h 8 km/h 64% 0 mm
13:44 14.4 °C 7.5 °C 1029 hPa NNE 1.6 km/h 11.3 km/h 63% 0 mm
13:49 13.9 °C 6.3 °C 1029 hPa NNW 3.2 km/h 8 km/h 60% 0 mm
13:54 13.1 °C 6.4 °C 1029 hPa NNE 3.2 km/h 14.5 km/h 64% 0 mm
13:59 12.8 °C 6.3 °C 1029 hPa NNE 3.2 km/h 14.5 km/h 65% 0 mm
14:04 12.6 °C 6.2 °C 1029 hPa NNE 1.6 km/h 12.9 km/h 65% 0 mm
14:09 13.4 °C 6.9 °C 1029 hPa NNW 3.2 km/h 6.4 km/h 65% 0 mm
14:14 14.5 °C 6.8 °C 1029 hPa NNW 4.8 km/h 14.5 km/h 60% 0 mm
14:19 14.6 °C 6.4 °C 1029 hPa NNW 4.8 km/h 17.7 km/h 58% 0 mm
14:24 14.8 °C 6.1 °C 1029 hPa North 4.8 km/h 17.7 km/h 56% 0 mm
14:29 14.8 °C 6.7 °C 1029 hPa NNW 3.2 km/h 11.3 km/h 58% 0 mm
14:34 15.2 °C 6.4 °C 1028.7 hPa NNW 8 km/h 16.1 km/h 56% 0 mm
14:39 14.9 °C 6 °C 1029 hPa ENE 8 km/h 12.9 km/h 55% 0 mm
14:44 13.8 °C 5.4 °C 1029 hPa NNW 4.8 km/h 14.5 km/h 57% 0 mm
14:49 13 °C 5.2 °C 1029 hPa NNW 4.8 km/h 12.9 km/h 59% 0 mm
14:54 13.8 °C 5.7 °C 1028.7 hPa NNW 3.2 km/h 16.1 km/h 58% 0 mm
14:59 14.8 °C 6.7 °C 1028.7 hPa ENE 1.6 km/h 8 km/h 58% 0 mm
15:04 15.4 °C 6.4 °C 1028.7 hPa North 3.2 km/h 12.9 km/h 55% 0 mm
15:09 14.9 °C 5.2 °C 1028.7 hPa NNE 4.8 km/h 12.9 km/h 52% 0 mm
15:14 13.8 °C 5.2 °C 1028.7 hPa NE 4.8 km/h 12.9 km/h 56% 0 mm
15:19 13.5 °C 5.2 °C 1028.7 hPa North 3.2 km/h 9.7 km/h 57% 0 mm
15:24 14.3 °C 6.1 °C 1028.7 hPa NNW 3.2 km/h 9.7 km/h 58% 0 mm
15:29 15 °C 6.8 °C 1028.7 hPa WNW 3.2 km/h 11.3 km/h 58% 0 mm
15:34 15.1 °C 6.3 °C 1028.7 hPa NE 8 km/h 12.9 km/h 56% 0 mm
15:39 14.8 °C 5.9 °C 1028.7 hPa NNE 1.6 km/h 12.9 km/h 55% 0 mm
15:44 14.5 °C 5.3 °C 1028.7 hPa NNE 6.4 km/h 11.3 km/h 54% 0 mm
15:49 14.7 °C 6.2 °C 1028.7 hPa North 3.2 km/h 11.3 km/h 57% 0 mm
15:54 14.8 °C 6.1 °C 1028.7 hPa NNW 1.6 km/h 6.4 km/h 56% 0 mm
15:59 14.8 °C 5.8 °C 1028.7 hPa North 4.8 km/h 11.3 km/h 55% 0 mm
16:04 13.8 °C 5.4 °C 1028.7 hPa North 4.8 km/h 11.3 km/h 57% 0 mm
16:09 13.2 °C 5.1 °C 1028.7 hPa NNW 3.2 km/h 11.3 km/h 58% 0 mm
16:14 13.7 °C 5.6 °C 1028.7 hPa NNW 3.2 km/h 8 km/h 58% 0 mm
16:19 14.4 °C 5.7 °C 1028.3 hPa NE 4.8 km/h 8 km/h 56% 0 mm
16:24 14.5 °C 5.3 °C 1028.3 hPa North 3.2 km/h 4.8 km/h 54% 0 mm
16:29 14.8 °C 5.6 °C 1028.3 hPa North 3.2 km/h 9.7 km/h 54% 0 mm
16:34 14.9 °C 5.4 °C 1028.3 hPa NNW 4.8 km/h 11.3 km/h 53% 0 mm
16:39 14.9 °C 6.7 °C 1028.3 hPa NNW 4.8 km/h 17.7 km/h 58% 0 mm
16:44 14.7 °C 5.7 °C 1028.3 hPa NNW 4.8 km/h 17.7 km/h 55% 0 mm
16:49 13.8 °C 5.2 °C 1028.3 hPa NNW 1.6 km/h 6.4 km/h 56% 0 mm
16:54 13.6 °C 5.4 °C 1028.3 hPa NW 3.2 km/h 11.3 km/h 58% 0 mm
16:59 13.9 °C 5.2 °C 1028.3 hPa NW 4.8 km/h 11.3 km/h 56% 0 mm
17:04 14.1 °C 5.2 °C 1028.3 hPa NW 4.8 km/h 8 km/h 55% 0 mm
17:09 14.2 °C 5.5 °C 1028.3 hPa NW 3.2 km/h 4.8 km/h 56% 0 mm
17:14 14.3 °C 5.6 °C 1028.3 hPa NNW 6.4 km/h 12.9 km/h 56% 0 mm
17:19 14.1 °C 5.4 °C 1028.3 hPa NW 1.6 km/h 11.3 km/h 56% 0 mm
17:24 14.2 °C 5.8 °C 1028.3 hPa North 4.8 km/h 6.4 km/h 57% 0 mm
17:29 14 °C 5.3 °C 1028.3 hPa NNE 3.2 km/h 8 km/h 56% 0 mm
17:34 13.5 °C 5.2 °C 1028.7 hPa North 3.2 km/h 9.7 km/h 57% 0 mm
17:39 13.2 °C 4.9 °C 1028.7 hPa North 3.2 km/h 9.7 km/h 57% 0 mm
17:44 13.2 °C 5.4 °C 1028.3 hPa NNW 3.2 km/h 9.7 km/h 59% 0 mm
17:49 13.1 °C 5 °C 1028.7 hPa North 4.8 km/h 17.7 km/h 58% 0 mm
17:54 12.9 °C 4.9 °C 1028.3 hPa North 1.6 km/h 8 km/h 58% 0 mm
17:59 12.8 °C 4.8 °C 1028.7 hPa Calm   9.7 km/h 58% 0 mm
18:04 12.6 °C 5.1 °C 1028.7 hPa NE 3.2 km/h 6.4 km/h 60% 0 mm
18:09 12.4 °C 5.1 °C 1028.7 hPa NNE 3.2 km/h 6.4 km/h 61% 0 mm
18:14 12.3 °C 4.9 °C 1028.7 hPa North 4.8 km/h 4.8 km/h 61% 0 mm
18:19 12.1 °C 5.3 °C 1028.7 hPa Calm   4.8 km/h 63% 0 mm
18:24 12 °C 4.9 °C 1028.7 hPa Calm   4.8 km/h 62% 0 mm
18:29 11.9 °C 4.8 °C 1028.7 hPa NNW 1.6 km/h 8 km/h 62% 0 mm
18:34 11.8 °C 4.9 °C 1028.7 hPa NNW 1.6 km/h 8 km/h 63% 0 mm
18:39 11.7 °C 4.8 °C 1028.7 hPa NW 1.6 km/h 6.4 km/h 63% 0 mm
18:44 11.5 °C 4.9 °C 1028.7 hPa NNW 1.6 km/h 6.4 km/h 64% 0 mm
18:49 11.4 °C 5.1 °C 1028.7 hPa Calm   3.2 km/h 65% 0 mm
18:54 11.2 °C 4.8 °C 1028.7 hPa NNW 3.2 km/h 3.2 km/h 65% 0 mm
18:59 11.1 °C 4.8 °C 1028.7 hPa Calm   3.2 km/h 65% 0 mm
19:04 10.8 °C 4.7 °C 1028.7 hPa Calm   3.2 km/h 66% 0 mm
19:09 10.6 °C 4.7 °C 1029 hPa Calm   4.8 km/h 67% 0 mm
19:14 10.4 °C 4.8 °C 1029 hPa Calm   4.8 km/h 68% 0 mm
19:19 10.3 °C 4.7 °C 1029 hPa Calm     68% 0 mm
19:24 10.2 °C 4.8 °C 1029 hPa Calm     69% 0 mm
19:29 10.1 °C 4.7 °C 1029 hPa Calm     69% 0 mm
19:34 10 °C 4.8 °C 1029 hPa Calm     70% 0 mm
19:39 9.8 °C 4.6 °C 1029 hPa Calm     70% 0 mm
19:44 9.7 °C 4.7 °C 1029.3 hPa Calm     71% 0 mm
19:49 9.6 °C 4.8 °C 1029.3 hPa Calm     72% 0 mm
19:54 9.4 °C 4.7 °C 1029.3 hPa Calm     72% 0 mm
19:59 9.2 °C 4.4 °C 1029.3 hPa Calm     72% 0 mm
20:04 9.1 °C 4.5 °C 1029.3 hPa Calm     73% 0 mm
20:09 9.1 °C 4.5 °C 1029.3 hPa Calm     73% 0 mm
20:14 9 °C 4.6 °C 1029.3 hPa Calm     74% 0 mm
20:19 8.9 °C 4.5 °C 1029.3 hPa Calm     74% 0 mm
20:24 8.8 °C 4.4 °C 1029.7 hPa Calm     74% 0 mm
20:29 8.7 °C 4.5 °C 1029.7 hPa Calm     75% 0 mm
20:34 8.7 °C 4.5 °C 1029.7 hPa Calm     75% 0 mm
20:39 8.6 °C 4.4 °C 1029.7 hPa Calm     75% 0 mm
20:44 8.4 °C 4.2 °C 1029.7 hPa Calm     75% 0 mm
20:49 8.3 °C 4.3 °C 1029.7 hPa Calm     76% 0 mm
20:54 8.1 °C 4.1 °C 1029.7 hPa Calm     76% 0 mm
20:59 7.9 °C 4.1 °C 1029.7 hPa Calm     77% 0 mm
21:04 7.7 °C 4.1 °C 1029.7 hPa Calm     78% 0 mm
21:09 7.6 °C 4.2 °C 1029.7 hPa Calm     79% 0 mm
21:14 7.5 °C 4.1 °C 1030 hPa Calm     79% 0 mm
21:19 7.4 °C 4.1 °C 1030 hPa Calm     79% 0 mm
21:24 7.3 °C 3.9 °C 1030 hPa Calm     79% 0 mm
21:29 7.1 °C 3.9 °C 1030 hPa Calm     80% 0 mm
21:34 7.2 °C 3.9 °C 1030 hPa Calm     80% 0 mm
21:39 7 °C 3.8 °C 1030 hPa Calm     80% 0 mm
21:44 7.1 °C 4 °C 1030 hPa Calm     81% 0 mm
21:49 7.1 °C 3.8 °C 1030 hPa Calm     80% 0 mm
21:54 6.9 °C 3.9 °C 1030 hPa Calm     81% 0 mm
21:59 6.7 °C 3.9 °C 1030 hPa Calm     82% 0 mm
22:04 6.6 °C 3.8 °C 1030 hPa Calm     82% 0 mm
22:09 6.5 °C 3.8 °C 1030 hPa Calm     83% 0 mm
22:14 6.5 °C 3.8 °C 1030 hPa Calm     83% 0 mm
22:19 6.3 °C 3.7 °C 1030 hPa Calm     83% 0 mm
22:24 6.3 °C 3.6 °C 1030 hPa Calm     83% 0 mm
22:29 6.1 °C 3.6 °C 1030 hPa Calm     84% 0 mm
22:34 6.3 °C 3.9 °C 1030 hPa Calm     85% 0 mm
22:39 6.5 °C 4 °C 1030 hPa Calm     84% 0 mm
22:44 6.5 °C 4 °C 1030 hPa Calm     84% 0 mm
22:49 6.4 °C 3.9 °C 1030 hPa Calm     84% 0 mm
22:54 6.2 °C 3.7 °C 1030 hPa Calm     84% 0 mm
22:59 6.1 °C 3.6 °C 1030 hPa Calm     84% 0 mm
23:04 6 °C 3.7 °C 1030 hPa Calm     85% 0 mm
23:09 6.2 °C 3.8 °C 1030 hPa Calm     85% 0 mm
23:14 6.3 °C 3.9 °C 1030 hPa Calm     85% 0 mm
23:19 6.4 °C 4.1 °C 1030 hPa Calm     85% 0 mm
23:24 6.3 °C 4 °C 1030 hPa Calm     85% 0 mm
23:29 6.1 °C 3.8 °C 1030 hPa Calm     85% 0 mm
23:34 6.1 °C 3.9 °C 1030 hPa Calm     86% 0 mm
23:39 6.1 °C 3.9 °C 1030 hPa Calm     86% 0 mm
23:44 6.1 °C 3.9 °C 1030 hPa Calm     86% 0 mm
23:49 6.1 °C 3.9 °C 1030 hPa Calm     86% 0 mm
23:54 5.9 °C 3.8 °C 1030 hPa Calm     86% 0 mm
23:59 5.8 °C 3.7 °C 1030 hPa Calm     86% 0 mm
Buffalo, New York, USA
Compliments of Weather Underground - 2.5 mb